Yahata Maru — JL6477 — position and weather

sailwx.info

Track history (hours):
 
Tides and Currents Weather Stations Pressure Air Temp Water Temp Dewpoint Dewpoint Depression Visibility Wind Speed Wind Dir Waves Ship Positions

Yahata Maru

Last reported at 2016-Jun-27 12:28 UTC. Time now 2016-Jun-29 16:36 UTC.
Position N 34°35' E 134°52'.

Length 149 m; draft 4.7 m.

Type: Other ship. MMSI: 431400594.

Date/timePositionNaut miles runAvg speedWind from/ knotsBaromVisibWave heightAir tempDewpointWater temp
2016-Jun-27 12:28N 34°35' E 134°52'8 8.4
2016-Jun-27 11:33N 34°38' E 135°00'7 6.8
2016-Jun-27 10:33N 34°36' E 135°08'9 8.6
2016-Jun-27 09:33N 34°39' E 135°18'4 3.0
2016-Jun-27 08:06N 34°43' E 135°21'0 0.0
2016-Jun-26 23:24N 34°43' E 135°21'1 0.8
2016-Jun-26 22:33N 34°43' E 135°20'1 1.1
2016-Jun-26 21:30N 34°41' E 135°21'0 0.0
2016-Jun-26 20:24N 34°41' E 135°21'0 0.0
2016-Jun-26 19:30N 34°41' E 135°21'0 0.0
2016-Jun-26 18:24N 34°41' E 135°21'0 0.1
2016-Jun-26 17:30N 34°41' E 135°21'0 0.0
2016-Jun-26 16:30N 34°41' E 135°21'0 0.0
2016-Jun-26 15:24N 34°41' E 135°21'0 0.0
2016-Jun-26 14:30N 34°41' E 135°21'0 0.0
2016-Jun-26 13:30N 34°41' E 135°21'0 0.0
2016-Jun-26 12:24N 34°41' E 135°21'0 0.0
2016-Jun-26 11:30N 34°41' E 135°21'0 0.0
2016-Jun-26 10:30N 34°41' E 135°21'4 3.9
2016-Jun-26 09:33N 34°38' E 135°20'5 4.9
2016-Jun-26 08:33N 34°35' E 135°26'1 0.9
2016-Jun-26 07:33N 34°36' E 135°25'8 8.4
2016-Jun-26 06:34N 34°31' E 135°16'9 9.4
2016-Jun-26 05:33N 34°25' E 135°08'10 9.4
2016-Jun-26 04:30N 34°18' E 134°60'9 9.6
2016-Jun-26 03:33N 34°09' E 135°00'  
2016-Jun-23 12:25N 35°01' E 139°30'8 9.0
2016-Jun-23 11:33N 35°05' E 139°38'9 9.1
2016-Jun-23 10:33N 35°12' E 139°46'9 8.5
2016-Jun-23 09:33N 35°20' E 139°43'2 2.2
2016-Jun-23 08:33N 35°22' E 139°44'0 0.1
2016-Jun-23 07:33N 35°22' E 139°44'0 0.0
2016-Jun-23 05:33N 35°22' E 139°44'0 0.1
2016-Jun-23 04:33N 35°22' E 139°44'1 0.8
2016-Jun-23 03:33N 35°23' E 139°44'5 5.3
2016-Jun-23 02:32N 35°28' E 139°43'0 0.0
2016-Jun-23 01:32N 35°28' E 139°43'0 0.0
2016-Jun-23 00:32N 35°28' E 139°43'0 0.1
2016-Jun-22 23:33N 35°28' E 139°43'6 5.8
2016-Jun-22 22:33N 35°29' E 139°50'9 8.9
2016-Jun-22 21:33N 35°33' E 139°59'6 6.4
2016-Jun-22 20:33N 35°33' E 140°07'0 0.0
2016-Jun-22 19:24N 35°33' E 140°07'0 0.0
2016-Jun-22 18:33N 35°33' E 140°07'0 0.0
2016-Jun-22 17:33N 35°33' E 140°07'0 0.0
2016-Jun-22 16:33N 35°33' E 140°07'0 0.0
2016-Jun-22 15:33N 35°33' E 140°07'0 0.0
2016-Jun-22 14:33N 35°33' E 140°07'0 0.0
2016-Jun-22 13:24N 35°33' E 140°07'0 0.0
2016-Jun-22 12:33N 35°33' E 140°07'0 0.0
2016-Jun-22 11:24N 35°33' E 140°07'0 0.0
2016-Jun-22 10:21N 35°33' E 140°07'0 0.0
2016-Jun-22 09:33N 35°33' E 140°07'0 0.0
2016-Jun-22 08:31N 35°33' E 140°07'5 5.7
2016-Jun-22 07:33N 35°32' E 140°00'10 9.7
2016-Jun-22 06:34N 35°27' E 139°50'10 9.6
2016-Jun-22 05:34N 35°24' E 139°39'1 0.7
2016-Jun-22 04:31N 35°23' E 139°38'0 0.4
2016-Jun-22 03:33N 35°24' E 139°39'5 4.6
2016-Jun-22 02:33N 35°20' E 139°43'8 8.0
2016-Jun-22 01:33N 35°13' E 139°47'9 9.1
2016-Jun-22 00:33N 35°05' E 139°43'  
2016-Jun-18 10:25N 34°34' E 134°47'1112.3
2016-Jun-18 09:33N 34°38' E 134°59'1010.1
2016-Jun-18 08:33N 34°36' E 135°11'9 9.2
2016-Jun-18 07:33N 34°36' E 135°22'3 2.7
2016-Jun-18 06:30N 34°35' E 135°26'0 0.0
2016-Jun-18 05:30N 34°35' E 135°26'4 3.7
2016-Jun-18 04:33N 34°36' E 135°21'5 4.7
2016-Jun-18 03:33N 34°41' E 135°22'2 1.2
2016-Jun-18 01:33N 34°43' E 135°20'9 8.6
2016-Jun-18 00:33N 34°35' E 135°16'10 9.6
2016-Jun-17 23:33N 34°27' E 135°09'10 9.9
2016-Jun-17 22:32N 34°20' E 135°00'9 9.6
2016-Jun-17 21:33N 34°10' E 135°00'10 9.9
2016-Jun-17 20:33N 34°00' E 135°01'  
Track history (hours):
 
Tides and Currents Weather Stations Pressure Air Temp Water Temp Dewpoint Dewpoint Depression Visibility Wind Speed Wind Dir Waves Ship Positions

Yahata Maru

Last reported at 2016-Jun-27 12:28 UTC. Time now 2016-Jun-29 16:36 UTC.
Position N 34°35' E 134°52'.

Length 149 m; draft 4.7 m.

Type: Other ship. MMSI: 431400594.

Date/timePositionNaut miles runAvg speedWind from/ knotsBaromVisibWave heightAir tempDewpointWater temp
2016-Jun-27 12:28N 34°35' E 134°52'8 8.4
2016-Jun-27 11:33N 34°38' E 135°00'7 6.8
2016-Jun-27 10:33N 34°36' E 135°08'9 8.6
2016-Jun-27 09:33N 34°39' E 135°18'4 3.0
2016-Jun-27 08:06N 34°43' E 135°21'0 0.0
2016-Jun-26 23:24N 34°43' E 135°21'1 0.8
2016-Jun-26 22:33N 34°43' E 135°20'1 1.1
2016-Jun-26 21:30N 34°41' E 135°21'0 0.0
2016-Jun-26 20:24N 34°41' E 135°21'0 0.0
2016-Jun-26 19:30N 34°41' E 135°21'0 0.0
2016-Jun-26 18:24N 34°41' E 135°21'0 0.1
2016-Jun-26 17:30N 34°41' E 135°21'0 0.0
2016-Jun-26 16:30N 34°41' E 135°21'0 0.0
2016-Jun-26 15:24N 34°41' E 135°21'0 0.0
2016-Jun-26 14:30N 34°41' E 135°21'0 0.0
2016-Jun-26 13:30N 34°41' E 135°21'0 0.0
2016-Jun-26 12:24N 34°41' E 135°21'0 0.0
2016-Jun-26 11:30N 34°41' E 135°21'0 0.0
2016-Jun-26 10:30N 34°41' E 135°21'4 3.9
2016-Jun-26 09:33N 34°38' E 135°20'5 4.9
2016-Jun-26 08:33N 34°35' E 135°26'1 0.9
2016-Jun-26 07:33N 34°36' E 135°25'8 8.4
2016-Jun-26 06:34N 34°31' E 135°16'9 9.4
2016-Jun-26 05:33N 34°25' E 135°08'10 9.4
2016-Jun-26 04:30N 34°18' E 134°60'9 9.6
2016-Jun-26 03:33N 34°09' E 135°00'  
2016-Jun-23 12:25N 35°01' E 139°30'8 9.0
2016-Jun-23 11:33N 35°05' E 139°38'9 9.1
2016-Jun-23 10:33N 35°12' E 139°46'9 8.5
2016-Jun-23 09:33N 35°20' E 139°43'2 2.2
2016-Jun-23 08:33N 35°22' E 139°44'0 0.1
2016-Jun-23 07:33N 35°22' E 139°44'0 0.0
2016-Jun-23 05:33N 35°22' E 139°44'0 0.1
2016-Jun-23 04:33N 35°22' E 139°44'1 0.8
2016-Jun-23 03:33N 35°23' E 139°44'5 5.3
2016-Jun-23 02:32N 35°28' E 139°43'0 0.0
2016-Jun-23 01:32N 35°28' E 139°43'0 0.0
2016-Jun-23 00:32N 35°28' E 139°43'0 0.1
2016-Jun-22 23:33N 35°28' E 139°43'6 5.8
2016-Jun-22 22:33N 35°29' E 139°50'9 8.9
2016-Jun-22 21:33N 35°33' E 139°59'6 6.4
2016-Jun-22 20:33N 35°33' E 140°07'0 0.0
2016-Jun-22 19:24N 35°33' E 140°07'0 0.0
2016-Jun-22 18:33N 35°33' E 140°07'0 0.0
2016-Jun-22 17:33N 35°33' E 140°07'0 0.0
2016-Jun-22 16:33N 35°33' E 140°07'0 0.0
2016-Jun-22 15:33N 35°33' E 140°07'0 0.0
2016-Jun-22 14:33N 35°33' E 140°07'0 0.0
2016-Jun-22 13:24N 35°33' E 140°07'0 0.0
2016-Jun-22 12:33N 35°33' E 140°07'0 0.0
2016-Jun-22 11:24N 35°33' E 140°07'0 0.0
2016-Jun-22 10:21N 35°33' E 140°07'0 0.0
2016-Jun-22 09:33N 35°33' E 140°07'0 0.0
2016-Jun-22 08:31N 35°33' E 140°07'5 5.7
2016-Jun-22 07:33N 35°32' E 140°00'10 9.7
2016-Jun-22 06:34N 35°27' E 139°50'10 9.6
2016-Jun-22 05:34N 35°24' E 139°39'1 0.7
2016-Jun-22 04:31N 35°23' E 139°38'0 0.4
2016-Jun-22 03:33N 35°24' E 139°39'5 4.6
2016-Jun-22 02:33N 35°20' E 139°43'8 8.0
2016-Jun-22 01:33N 35°13' E 139°47'9 9.1
2016-Jun-22 00:33N 35°05' E 139°43'  
2016-Jun-18 10:25N 34°34' E 134°47'1112.3
2016-Jun-18 09:33N 34°38' E 134°59'1010.1
2016-Jun-18 08:33N 34°36' E 135°11'9 9.2
2016-Jun-18 07:33N 34°36' E 135°22'3 2.7
2016-Jun-18 06:30N 34°35' E 135°26'0 0.0
2016-Jun-18 05:30N 34°35' E 135°26'4 3.7
2016-Jun-18 04:33N 34°36' E 135°21'5 4.7
2016-Jun-18 03:33N 34°41' E 135°22'2 1.2
2016-Jun-18 01:33N 34°43' E 135°20'9 8.6
2016-Jun-18 00:33N 34°35' E 135°16'10 9.6
2016-Jun-17 23:33N 34°27' E 135°09'10 9.9
2016-Jun-17 22:32N 34°20' E 135°00'9 9.6
2016-Jun-17 21:33N 34°10' E 135°00'10 9.9
2016-Jun-17 20:33N 34°00' E 135°01'  

Dump ship's entire track history